Time;durP1;ratioP1;P1;durP2;ratioP2;P2;SDS_P1;SDS_P2;PMS_P1;PMS_P2;Temp;Humidity;BMP_temperature;BMP_pressure;BME280_temperature;BME280_humidity;BME280_pressure;Samples;Min_cycle;Max_cycle;Signal;HPM_P1;HPM_P2
2024/04/06 00:02:20;;;;;;;34.90;14.73;;;;;;;;;;5002522;28;20072;-74
2024/04/06 00:05:24;;;;;;;26.65;13.40;;;;;;;;;;5002323;28;20044;-75
2024/04/06 00:08:28;;;;;;;23.35;12.90;;;;;;;;;;5014245;28;20041;-75
2024/04/06 00:11:33;;;;;;;36.65;17.98;;;;;;;;;;5002217;28;20036;-75
2024/04/06 00:14:37;;;;;;;35.90;18.45;;;;;;;;;;5002230;28;20151;-74
2024/04/06 00:17:41;;;;;;;36.20;17.90;;;;;;;;;;5014287;28;20398;-74
2024/04/06 00:20:46;;;;;;;39.30;18.98;;;;;;;;;;5014155;28;20513;-74
2024/04/06 00:23:50;;;;;;;34.83;18.40;;;;;;;;;;5014245;28;20041;-74
2024/04/06 00:26:55;;;;;;;35.67;19.83;;;;;;;;;;5014253;28;20049;-74
2024/04/06 00:29:59;;;;;;;36.17;19.20;;;;;;;;;;5014218;28;20057;-76
2024/04/06 00:33:04;;;;;;;33.97;18.58;;;;;;;;;;5014196;28;20044;-75
2024/04/06 00:36:08;;;;;;;32.05;19.10;;;;;;;;;;5001926;28;20049;-74
2024/04/06 00:39:13;;;;;;;34.13;16.98;;;;;;;;;;5001670;28;20053;-73
2024/04/06 00:42:17;;;;;;;24.83;14.65;;;;;;;;;;5001366;28;20041;-74
2024/04/06 00:45:21;;;;;;;29.80;16.15;;;;;;;;;;5013460;28;20512;-74
2024/04/06 00:48:26;;;;;;;29.05;13.80;;;;;;;;;;5013777;28;20041;-74
2024/04/06 00:51:30;;;;;;;24.38;14.77;;;;;;;;;;5013967;28;20520;-74
2024/04/06 00:54:35;;;;;;;28.58;15.90;;;;;;;;;;5002690;28;20672;-74
2024/04/06 00:57:39;;;;;;;31.70;16.35;;;;;;;;;;5015839;28;20057;-74
2024/04/06 01:00:43;;;;;;;26.98;16.63;;;;;;;;;;5002154;28;20049;-74
2024/04/06 01:03:47;;;;;;;27.17;16.52;;;14.90;99.60;;;;;;5013396;28;20049;-74
2024/04/06 01:06:51;;;;;;;33.25;18.27;;;13.30;99.40;;;;;;5013322;28;20041;-74
2024/04/06 01:09:56;;;;;;;38.03;17.70;;;;;;;;;;5012794;28;20041;-75
2024/04/06 01:13:00;;;;;;;42.85;20.80;;;;;;;;;;5001027;28;20049;-74
2024/04/06 01:16:04;;;;;;;43.05;20.23;;;14.30;99.90;;;;;;5012952;28;20045;-75
2024/04/06 01:19:08;;;;;;;39.38;19.40;;;;;;;;;;5012736;28;20049;-75
2024/04/06 01:22:13;;;;;;;37.15;19.95;;;;;;;;;;5012918;28;20414;-75
2024/04/06 01:25:17;;;;;;;32.83;17.80;;;;;;;;;;5013122;28;20052;-75
2024/04/06 01:28:22;;;;;;;30.30;17.77;;;;;;;;;;5013061;28;20501;-75
2024/04/06 01:31:26;;;;;;;35.53;17.77;;;;;;;;;;5012935;28;20056;-75
2024/04/06 01:34:31;;;;;;;43.08;17.98;;;;;;;;;;5000681;28;20041;-75
2024/04/06 01:37:35;;;;;;;37.90;18.80;;;13.40;99.20;;;;;;5012560;28;20068;-75
2024/04/06 01:40:39;;;;;;;37.45;19.25;;;;;;;;;;5012770;28;20548;-75
2024/04/06 01:43:43;;;;;;;39.80;17.85;;;;;;;;;;5012653;28;20049;-74
2024/04/06 01:46:47;;;;;;;35.90;18.92;;;;;;;;;;5012790;28;20052;-75
2024/04/06 01:49:52;;;;;;;34.33;16.65;;;14.20;99.80;;;;;;5012702;28;20668;-75
2024/04/06 01:52:56;;;;;;;35.05;16.55;;;;;;;;;;5000521;28;20145;-75
2024/04/06 01:56:00;;;;;;;34.38;17.27;;;;;;;;;;5000276;28;20041;-75
2024/04/06 01:59:04;;;;;;;36.22;17.58;;;;;;;;;;5000025;28;20060;-74
2024/04/06 02:02:08;;;;;;;29.10;15.75;;;;;;;;;;5012238;28;20049;-74
2024/04/06 02:05:13;;;;;;;25.35;14.48;;;;;;;;;;5000191;28;20053;-74
2024/04/06 02:08:17;;;;;;;25.10;14.77;;;;;;;;;;5012433;28;20049;-74
2024/04/06 02:11:22;;;;;;;31.73;15.88;;;;;;;;;;5011936;28;20048;-74
2024/04/06 02:14:26;;;;;;;30.45;13.93;;;;;;;;;;5012032;28;20048;-74
2024/04/06 02:17:30;;;;;;;26.45;13.90;;;;;;;;;;5000004;28;20045;-74
2024/04/06 02:20:34;;;;;;;28.67;15.02;;;;;;;;;;5011646;28;20057;-74
2024/04/06 02:23:39;;;;;;;30.00;13.80;;;;;;;;;;5011716;28;20037;-75
2024/04/06 02:26:44;;;;;;;31.20;14.18;;;;;;;;;;5011788;28;20040;-74
2024/04/06 02:29:48;;;;;;;24.15;12.43;;;;;;;;;;4999768;28;20037;-74
2024/04/06 02:32:52;;;;;;;23.02;12.65;;;;;;;;;;5012012;28;20045;-75
2024/04/06 02:35:56;;;;;;;24.17;12.88;;;;;;;;;;5012053;28;20045;-74
2024/04/06 02:39:00;;;;;;;24.75;11.80;;;;;;;;;;5011621;28;20053;-74
2024/04/06 02:42:04;;;;;;;24.98;11.82;;;14.00;98.20;;;;;;5012283;28;20049;-74
2024/04/06 02:45:08;;;;;;;26.00;12.00;;;13.90;98.60;;;;;;5013237;28;20080;-76
2024/04/06 02:48:12;;;;;;;20.85;11.82;;;13.70;98.60;;;;;;5013649;28;20052;-74
2024/04/06 02:51:16;;;;;;;22.45;11.20;;;13.70;98.80;;;;;;5014209;28;20036;-74
2024/04/06 02:54:20;;;;;;;24.02;10.13;;;13.80;98.70;;;;;;5001854;28;20045;-75
2024/04/06 02:57:24;;;;;;;22.92;11.48;;;13.70;98.80;;;;;;5013715;28;20041;-75
2024/04/06 03:00:28;;;;;;;26.23;11.07;;;13.60;99.00;;;;;;5013285;28;20057;-75
2024/04/06 03:03:32;;;;;;;17.52;10.30;;;13.60;99.30;;;;;;5013956;28;20041;-74
2024/04/06 03:06:36;;;;;;;22.88;10.55;;;13.50;99.30;;;;;;5013361;28;20045;-74
2024/04/06 03:09:40;;;;;;;19.42;10.60;;;13.50;99.40;;;;;;5013061;28;20041;-74
2024/04/06 03:12:44;;;;;;;20.60;10.45;;;13.60;99.60;;;;;;5012760;28;20057;-74
2024/04/06 03:15:48;;;;;;;19.73;10.55;;;13.60;99.50;;;;;;5011606;28;20041;-74
2024/04/06 03:18:52;;;;;;;27.42;10.73;;;13.50;99.30;;;;;;4999469;28;20057;-74
2024/04/06 03:21:56;;;;;;;19.77;10.60;;;13.50;99.60;;;;;;4999569;28;20413;-74
2024/04/06 03:25:00;;;;;;;19.95;10.48;;;13.60;99.70;;;;;;5011680;28;20390;-74
2024/04/06 03:28:04;;;;;;;19.27;9.98;;;13.60;99.70;;;;;;5011673;28;20061;-74
2024/04/06 03:31:08;;;;;;;19.65;9.48;;;13.50;99.70;;;;;;5011804;28;20052;-75
2024/04/06 03:34:12;;;;;;;14.15;8.77;;;13.50;99.70;;;;;;5003358;28;20061;-74
2024/04/06 03:37:16;;;;;;;17.48;9.75;;;13.70;99.50;;;;;;5004380;28;20049;-74
2024/04/06 03:40:20;;;;;;;18.65;10.70;;;13.80;99.40;;;;;;5015957;28;20048;-74
2024/04/06 03:43:25;;;;;;;17.70;8.70;;;13.70;99.30;;;;;;5015918;28;20045;-73
2024/04/06 03:46:29;;;;;;;28.02;8.35;;;13.60;99.50;;;;;;5004037;28;20061;-74
2024/04/06 03:49:33;;;;;;;17.90;8.30;;;13.60;99.70;;;;;;5014556;28;20430;-74
2024/04/06 03:52:37;;;;;;;19.85;8.88;;;13.50;99.70;;;;;;5003421;28;20045;-74
2024/04/06 03:55:41;;;;;;;18.75;8.80;;;13.60;99.90;;;;;;5015367;28;20501;-75
2024/04/06 03:58:45;;;;;;;19.40;8.52;;;;;;;;;;5015724;28;20406;-74
2024/04/06 04:01:49;;;;;;;15.20;9.18;;;13.70;99.60;;;;;;5015124;28;20513;-75
2024/04/06 04:04:53;;;;;;;18.02;8.40;;;13.60;99.80;;;;;;5015319;28;20350;-74
2024/04/06 04:07:57;;;;;;;22.33;8.15;;;13.50;99.80;;;;;;5015470;28;20049;-74
2024/04/06 04:11:01;;;;;;;20.08;9.10;;;13.70;99.90;;;;;;5003076;28;20064;-74
2024/04/06 04:14:06;;;;;;;17.10;8.80;;;13.60;99.90;;;;;;5002898;28;20053;-74
2024/04/06 04:17:09;;;;;;;23.42;9.10;;;11.50;99.20;;;;;;5014925;28;20402;-74
2024/04/06 04:20:14;;;;;;;19.05;8.48;;;;;;;;;;5014772;28;20045;-74
2024/04/06 04:23:18;;;;;;;19.27;8.75;;;;;;;;;;5016510;28;20053;-74
2024/04/06 04:26:22;;;;;;;15.52;9.23;;;13.00;99.70;;;;;;5015505;28;20188;-75
2024/04/06 04:29:27;;;;;;;22.35;9.85;;;13.80;99.90;;;;;;5015066;28;20049;-75
2024/04/06 04:32:32;;;;;;;23.27;9.60;;;;;;;;;;5015212;28;20053;-74
2024/04/06 04:35:35;;;;;;;19.17;9.68;;;12.70;99.90;;;;;;5003444;28;20508;-75
2024/04/06 04:38:40;;;;;;;17.83;9.70;;;16.50;99.90;;;;;;5014762;28;20129;-75
2024/04/06 04:41:44;;;;;;;22.77;9.73;;;;;;;;;;5014770;28;20053;-74
2024/04/06 04:44:49;;;;;;;30.45;10.93;;;15.00;99.90;;;;;;5014480;28;20076;-74
2024/04/06 04:47:53;;;;;;;24.67;10.82;;;;;;;;;;5017454;28;20041;-74
2024/04/06 04:50:57;;;;;;;28.67;11.98;;;;;;;;;;5016449;28;20057;-75
2024/04/06 04:54:02;;;;;;;26.30;11.57;;;;;;;;;;5016214;28;20226;-74
2024/04/06 04:57:06;;;;;;;20.05;10.80;;;;;;;;;;5003854;28;20045;-75
2024/04/06 05:00:11;;;;;;;25.98;11.40;;;;;;;;;;5017004;28;20133;-74
2024/04/06 05:03:16;;;;;;;25.75;13.05;;;;;;;;;;5015975;28;20060;-74
2024/04/06 05:06:20;;;;;;;25.10;13.75;;;;;;;;;;5016578;28;20493;-74
2024/04/06 05:09:24;;;;;;;27.33;13.93;;;;;;;;;;5016501;28;20041;-75
2024/04/06 05:12:29;;;;;;;33.97;15.90;;;;;;;;;;5016576;28;20045;-73
2024/04/06 05:15:33;;;;;;;36.33;19.35;;;;;;;;;;5016007;28;20074;-74
2024/04/06 05:18:38;;;;;;;44.60;19.45;;;;;;;;;;5003422;28;20053;-75
2024/04/06 05:21:43;;;;;;;50.90;24.27;;;;;;;;;;5016318;28;20542;-75
2024/04/06 05:24:47;;;;;;;40.92;22.33;;;;;;;;;;5015602;28;20045;-73
2024/04/06 05:27:52;;;;;;;58.65;23.88;;;;;;;;;;5015601;28;20057;-75
2024/04/06 05:30:56;;;;;;;52.80;25.48;;;;;;;;;;5016203;28;20045;-74
2024/04/06 05:34:01;;;;;;;55.28;28.73;;;;;;;;;;5004648;28;20071;-74
2024/04/06 05:37:05;;;;;;;72.90;37.63;;;;;;;;;;5003627;28;20045;-74
2024/04/06 05:40:10;;;;;;;79.65;39.05;;;;;;;;;;5016094;28;20052;-74
2024/04/06 05:43:14;;;;;;;72.65;38.38;;;;;;;;;;5015562;28;20037;-74
2024/04/06 05:46:19;;;;;;;78.15;38.92;;;;;;;;;;4993203;28;20406;-74
2024/04/06 05:49:23;;;;;;;72.85;37.92;;;;;;;;;;5002461;28;20044;-75
2024/04/06 05:52:27;;;;;;;77.72;38.15;;;;;;;;;;5014267;28;20048;-74
2024/04/06 05:55:32;;;;;;;73.53;39.13;;;15.10;99.90;;;;;;5001962;28;20110;-75
2024/04/06 05:58:37;;;;;;;75.47;39.63;;;;;;;;;;5012803;28;20057;-67
2024/04/06 06:01:41;;;;;;;87.63;40.53;;;;;;;;;;5012678;28;20044;-67
2024/04/06 06:04:46;;;;;;;78.50;39.95;;;;;;;;;;5012557;28;20148;-67
2024/04/06 06:07:51;;;;;;;79.78;39.03;;;;;;;;;;5012896;28;20390;-67
2024/04/06 06:10:56;;;;;;;74.32;38.47;;;;;;;;;;5012111;28;20049;-66
2024/04/06 06:14:00;;;;;;;80.78;41.17;;;;;;;;;;5012397;28;20041;-66
2024/04/06 06:17:05;;;;;;;77.72;39.20;;;15.20;99.90;;;;;;5012475;28;20052;-67
2024/04/06 06:20:11;;;;;;;71.82;36.70;;;;;;;;;;5000092;28;20578;-66
2024/04/06 06:23:16;;;;;;;71.45;39.70;;;;;;;;;;5011934;28;20049;-67
2024/04/06 06:26:20;;;;;;;78.22;39.38;;;;;;;;;;5011046;28;20057;-67
2024/04/06 06:29:24;;;;;;;78.25;39.90;;;;;;;;;;5012034;28;20041;-67
2024/04/06 06:32:28;;;;;;;73.80;39.55;;;;;;;;;;5012009;28;20049;-67
2024/04/06 06:35:34;;;;;;;79.38;42.00;;;;;;;;;;5012099;28;20041;-67
2024/04/06 06:38:38;;;;;;;77.90;42.05;;;;;;;;;;5012138;28;20049;-67
2024/04/06 06:41:43;;;;;;;80.78;40.58;;;;;;;;;;5012047;28;20509;-68
2024/04/06 06:44:47;;;;;;;92.30;43.42;;;;;;;;;;5011650;28;20065;-67
2024/04/06 06:47:51;;;;;;;90.43;43.17;;;;;;;;;;5011811;28;20049;-67
2024/04/06 06:50:55;;;;;;;92.53;42.50;;;;;;;;;;5011884;28;20045;-68
2024/04/06 06:54:00;;;;;;;87.07;41.95;;;;;;;;;;5011828;28;20049;-67
2024/04/06 06:57:04;;;;;;;84.50;41.70;;;;;;;;;;5012013;28;20525;-67
2024/04/06 07:00:10;;;;;;;89.32;43.78;;;;;;;;;;5011699;28;20410;-66
2024/04/06 07:03:14;;;;;;;85.72;43.95;;;;;;;;;;5011879;28;20044;-67
2024/04/06 07:06:19;;;;;;;85.93;41.85;;;;;;;;;;5011921;28;20040;-67
2024/04/06 07:09:23;;;;;;;88.53;42.92;;;;;;;;;;4998896;28;20041;-66
2024/04/06 07:12:27;;;;;;;70.82;38.22;;;;;;;;;;5011523;28;20041;-67
2024/04/06 07:15:35;;;;;;;74.75;39.88;;;15.70;99.90;;;;;;5011068;28;20056;-68
2024/04/06 07:18:39;;;;;;;81.55;41.00;;;15.70;99.90;;;;;;5011358;28;20049;-68
2024/04/06 07:21:44;;;;;;;78.28;41.47;;;;;;;;;;5011284;28;20045;-67
2024/04/06 07:24:48;;;;;;;75.78;40.78;;;;;;;;;;5011344;28;20045;-67
2024/04/06 07:27:52;;;;;;;76.90;38.45;;;;;;;;;;5011188;28;20065;-65
2024/04/06 07:30:57;;;;;;;76.63;38.28;;;;;;;;;;5011149;28;20041;-66
2024/04/06 07:34:01;;;;;;;75.00;40.88;;;;;;;;;;5011654;28;20053;-67
2024/04/06 07:37:05;;;;;;;77.45;40.88;;;;;;;;;;5011168;28;20512;-68
2024/04/06 07:40:10;;;;;;;73.78;40.53;;;15.80;99.90;;;;;;5011165;28;20061;-68
2024/04/06 07:43:14;;;;;;;77.07;40.72;;;;;;;;;;5011018;28;20096;-67
2024/04/06 07:46:18;;;;;;;75.22;40.50;;;;;;;;;;5011192;28;20053;-68
2024/04/06 07:49:23;;;;;;;76.70;43.53;;;;;;;;;;5011452;28;20053;-67
2024/04/06 07:52:28;;;;;;;80.30;41.28;;;;;;;;;;4999176;28;20509;-67
2024/04/06 07:55:32;;;;;;;102.88;40.90;;;;;;;;;;5010980;28;20045;-67
2024/04/06 07:58:36;;;;;;;78.63;40.25;;;;;;;;;;5011144;28;20061;-68
2024/04/06 08:01:41;;;;;;;70.40;40.00;;;;;;;;;;5011212;28;20217;-66
2024/04/06 08:04:45;;;;;;;72.63;39.72;;;;;;;;;;5011006;28;20072;-67
2024/04/06 08:07:50;;;;;;;77.20;38.05;;;;;;;;;;5011148;28;20490;-67
2024/04/06 08:10:54;;;;;;;67.68;38.05;;;;;;;;;;5010982;28;20068;-66
2024/04/06 08:13:58;;;;;;;70.88;37.67;;;;;;;;;;5010674;28;20049;-67
2024/04/06 08:17:03;;;;;;;66.47;35.33;;;;;;;;;;5010829;28;20056;-69
2024/04/06 08:20:08;;;;;;;75.53;34.35;;;16.80;99.90;;;;;;5013344;28;20060;-68
2024/04/06 08:23:16;;;;;;;77.55;40.65;;;;;;;;;;5001444;28;20037;-66
2024/04/06 08:26:20;;;;;;;70.97;37.92;;;;;;;;;;5014598;28;20675;-66
2024/04/06 08:29:25;;;;;;;70.05;35.70;;;;;;;;;;5014717;28;20045;-66
2024/04/06 08:32:29;;;;;;;62.58;33.85;;;;;;;;;;5014459;28;20532;-67
2024/04/06 08:35:37;;;;;;;56.42;28.83;;;17.90;99.90;;;;;;5013947;28;20425;-66
2024/04/06 08:38:41;;;;;;;59.45;32.20;;;;;;;;;;5014032;28;20049;-64
2024/04/06 08:41:46;;;;;;;54.80;30.95;;;;;;;;;;5014077;28;20064;-66
2024/04/06 08:44:50;;;;;;;52.45;31.08;;;;;;;;;;5014112;28;20505;-68
2024/04/06 08:47:54;;;;;;;57.83;32.17;;;19.20;97.40;;;;;;5001794;28;20045;-66
2024/04/06 08:51:00;;;;;;;47.60;28.55;;;;;;;;;;5013898;28;20045;-67
2024/04/06 08:54:05;;;;;;;47.75;27.83;;;19.60;97.10;;;;;;5014230;28;20044;-68
2024/04/06 08:57:09;;;;;;;64.05;28.38;;;;;;;;;;5013287;28;20493;-68
2024/04/06 09:00:14;;;;;;;37.80;23.58;;;;;;;;;;5013182;28;20048;-67
2024/04/06 09:03:19;;;;;;;45.10;26.00;;;;;;;;;;5013446;28;20060;-67
2024/04/06 09:06:24;;;;;;;43.90;25.15;;;;;;;;;;5013244;28;20048;-68
2024/04/06 09:09:28;;;;;;;39.08;22.25;;;;;;;;;;5013086;28;20053;-67
2024/04/06 09:12:32;;;;;;;45.92;24.40;;;;;;;;;;5013577;28;20517;-68
2024/04/06 09:15:37;;;;;;;36.05;21.90;;;;;;;;;;5001520;28;20057;-68
2024/04/06 09:18:41;;;;;;;38.33;23.85;;;;;;;;;;5013335;28;20065;-69
2024/04/06 09:21:47;;;;;;;47.70;20.98;;;20.20;95.80;;;;;;5001414;28;20052;-68
2024/04/06 09:24:54;;;;;;;30.27;18.70;;;21.70;96.30;;;;;;5013642;28;20045;-68
2024/04/06 09:27:58;;;;;;;36.05;22.30;;;;;;;;;;5001297;28;20037;-69
2024/04/06 09:31:07;;;;;;;44.97;23.27;;;20.00;94.90;;;;;;5000457;28;20382;-67
2024/04/06 09:34:14;;;;;;;34.53;20.88;;;;;;;;;;5001305;28;20044;-68
2024/04/06 09:37:28;;;;;;;38.38;24.42;;;20.90;94.30;;;;;;5013069;28;20060;-68
2024/04/06 09:40:33;;;;;;;48.38;25.90;;;20.90;94.50;;;;;;5012947;28;20053;-67
2024/04/06 09:43:38;;;;;;;46.13;25.70;;;20.30;94.30;;;;;;5013213;28;20060;-68
2024/04/06 09:46:42;;;;;;;39.20;23.45;;;;;;;;;;5013151;28;20068;-68
2024/04/06 09:49:51;;;;;;;38.28;22.75;;;21.30;94.40;;;;;;5012637;28;20045;-68
2024/04/06 09:52:56;;;;;;;29.98;20.23;;;;;;;;;;5013165;28;20049;-69
2024/04/06 09:56:02;;;;;;;34.95;21.65;;;20.20;94.00;;;;;;5012784;28;20048;-69
2024/04/06 09:59:06;;;;;;;44.58;25.40;;;;;;;;;;5012666;28;20068;-69
2024/04/06 10:02:10;;;;;;;37.97;21.73;;;;;;;;;;5012326;28;20041;-68
2024/04/06 10:05:14;;;;;;;43.40;22.75;;;;;;;;;;5000950;28;20501;-68
2024/04/06 10:08:19;;;;;;;45.55;25.73;;;21.70;92.90;;;;;;5013040;28;20041;-69
2024/04/06 10:11:37;;;;;;;32.90;21.25;;;20.10;93.00;;;;;;5000825;28;20074;-68
2024/04/06 10:14:44;;;;;;;33.58;22.00;;;21.90;93.70;;;;;;5012822;28;20041;-68
2024/04/06 10:17:52;;;;;;;37.70;22.90;;;22.10;93.40;;;;;;5012766;28;20045;-69
2024/04/06 10:21:10;;;;;;;32.35;22.08;;;22.80;92.90;;;;;;5012932;28;20053;-69
2024/04/06 10:24:14;;;;;;;44.45;25.80;;;;;;;;;;5000543;28;20037;-69
2024/04/06 10:27:19;;;;;;;37.05;24.85;;;;;;;;;;5012644;28;20413;-66
2024/04/06 10:30:24;;;;;;;38.08;23.25;;;22.50;92.70;;;;;;5012150;28;20591;-69
2024/04/06 10:33:30;;;;;;;40.17;26.38;;;22.40;92.50;;;;;;5000449;28;20036;-69
2024/04/06 10:36:34;;;;;;;38.38;22.50;;;;;;;;;;5011902;28;20065;-68
2024/04/06 10:39:37;;;;;;;38.38;22.08;;;;;;;;;;5011655;28;20056;-69
2024/04/06 10:42:42;;;;;;;31.52;21.83;;;;;;;;;;5011351;28;20493;-70
2024/04/06 10:45:52;;;;;;;37.25;25.65;;;24.30;92.50;;;;;;4999487;28;20057;-69
2024/04/06 10:48:56;;;;;;;48.58;28.95;;;;;;;;;;5011886;28;20056;-69
2024/04/06 10:52:01;;;;;;;25.60;19.75;;;;;;;;;;5011712;28;20048;-68
2024/04/06 10:55:38;;;;;;;29.42;20.92;;;22.60;92.20;;;;;;5012031;28;20201;-68
2024/04/06 10:58:36;;;;;;;30.33;22.17;;;;;;;;;;5011649;28;20045;-70
2024/04/06 11:01:41;;;;;;;32.58;22.02;;;22.50;92.00;;;;;;5011364;28;20057;-69
2024/04/06 11:04:46;;;;;;;35.30;22.10;;;;;;;;;;5011857;28;20189;-69
2024/04/06 11:07:50;;;;;;;53.95;28.35;;;;;;;;;;5011774;28;20535;-68
2024/04/06 11:10:55;;;;;;;28.95;20.90;;;22.90;92.10;;;;;;4999775;28;20040;-69
2024/04/06 11:13:59;;;;;;;33.60;22.70;;;;;;;;;;5011531;28;20504;-68
2024/04/06 11:17:06;;;;;;;43.72;28.10;;;21.50;91.50;;;;;;4999597;28;20044;-69
2024/04/06 11:20:11;;;;;;;35.00;25.70;;;;;;;;;;4999236;28;20061;-68
2024/04/06 11:23:19;;;;;;;34.25;22.35;;;21.60;91.60;;;;;;5011790;28;20036;-68
2024/04/06 11:26:23;;;;;;;25.92;17.67;;;;;;;;;;5011334;28;20049;-69
2024/04/06 11:29:28;;;;;;;41.22;26.73;;;;;;;;;;5011605;28;20041;-68
2024/04/06 11:32:32;;;;;;;40.38;25.23;;;;;;;;;;5011231;28;20044;-69
2024/04/06 11:35:36;;;;;;;29.30;18.27;;;;;;;;;;5011526;28;20044;-68
2024/04/06 11:38:40;;;;;;;33.20;18.88;;;;;;;;;;5012033;28;20049;-68
2024/04/06 11:41:45;;;;;;;26.25;15.52;;;;;;;;;;5011629;28;20121;-68
2024/04/06 11:44:50;;;;;;;16.88;11.25;;;;;;;;;;5011038;28;20049;-69
2024/04/06 11:47:54;;;;;;;21.55;13.43;;;;;;;;;;5011776;28;20637;-69
2024/04/06 11:50:58;;;;;;;23.65;13.70;;;;;;;;;;4998779;28;20041;-69
2024/04/06 11:54:03;;;;;;;18.70;10.93;;;;;;;;;;5012011;28;20172;-68
2024/04/06 11:57:07;;;;;;;20.70;11.57;;;;;;;;;;5015037;28;20373;-70
2024/04/06 12:00:12;;;;;;;13.20;8.45;;;22.40;90.30;;;;;;5015230;28;20053;-69
2024/04/06 12:03:19;;;;;;;18.02;10.52;;;;;;;;;;5014673;28;20044;-69
2024/04/06 12:06:24;;;;;;;14.30;9.15;;;;;;;;;;5014707;28;20401;-68
2024/04/06 12:09:28;;;;;;;18.35;9.80;;;;;;;;;;5014890;28;20531;-70
2024/04/06 12:12:32;;;;;;;22.02;9.85;;;;;;;;;;5015099;28;20045;-68
2024/04/06 12:15:40;;;;;;;19.30;10.07;;;;;;;;;;5002615;28;20050;-69
2024/04/06 12:18:45;;;;;;;14.55;8.52;;;;;;;;;;5014943;28;20185;-69
2024/04/06 12:21:49;;;;;;;20.73;9.93;;;;;;;;;;5015488;28;20056;-68
2024/04/06 12:24:53;;;;;;;14.90;9.02;;;;;;;;;;5015128;28;20045;-68
2024/04/06 12:27:58;;;;;;;16.05;8.25;;;;;;;;;;5015545;28;20052;-68
2024/04/06 12:31:02;;;;;;;23.08;8.93;;;22.50;90.70;;;;;;5015320;28;20037;-68
2024/04/06 12:34:06;;;;;;;25.70;11.13;;;;;;;;;;5002638;28;20044;-69
2024/04/06 12:37:13;;;;;;;18.58;11.75;;;;;;;;;;5014181;28;20045;-69
2024/04/06 12:40:17;;;;;;;19.15;10.95;;;;;;;;;;5014072;28;20125;-68
2024/04/06 12:43:22;;;;;;;15.50;9.98;;;;;;;;;;5013699;28;20056;-67
2024/04/06 12:46:26;;;;;;;28.83;12.40;;;;;;;;;;5014462;28;20104;-68
2024/04/06 12:49:31;;;;;;;19.05;11.18;;;;;;;;;;5014787;28;20482;-68
2024/04/06 12:52:35;;;;;;;19.05;11.68;;;;;;;;;;5014215;28;20394;-67
2024/04/06 12:55:40;;;;;;;25.58;12.18;;;;;;;;;;5014475;28;20500;-69
2024/04/06 12:58:44;;;;;;;18.02;10.68;;;;;;;;;;5014407;28;20049;-75
2024/04/06 13:01:48;;;;;;;17.67;11.40;;;;;;;;;;5007015;28;20516;-76
2024/04/06 13:04:53;;;;;;;20.42;12.10;;;;;;;;;;5016910;28;20110;-75
2024/04/06 13:07:58;;;;;;;23.02;11.70;;;;;;;;;;5017598;28;20037;-74
2024/04/06 13:11:03;;;;;;;24.17;11.00;;;;;;;;;;5018410;28;20045;-78
2024/04/06 13:14:08;;;;;;;14.25;9.52;;;;;;;;;;5018157;28;20069;-73
2024/04/06 13:17:12;;;;;;;15.45;7.85;;;;;;;;;;5016894;28;20069;-76
2024/04/06 13:23:21;;;;;;;19.85;8.27;;;;;;;;;;5017216;28;20052;-76
2024/04/06 13:26:25;;;;;;;18.80;8.18;;;;;;;;;;5017718;28;20037;-75
2024/04/06 13:29:30;;;;;;;12.95;7.47;;;;;;;;;;5017329;28;20044;-76
2024/04/06 13:32:35;;;;;;;18.67;7.32;;;22.40;92.70;;;;;;5015635;28;20057;-75
2024/04/06 13:35:41;;;;;;;20.58;7.00;;;;;;;;;;4993346;28;20045;-75
2024/04/06 13:38:46;;;;;;;16.90;6.82;;;;;;;;;;5015554;28;20049;-75
2024/04/06 13:41:50;;;;;;;14.98;7.15;;;;;;;;;;5015667;28;20402;-75
2024/04/06 13:44:57;;;;;;;17.23;7.60;;;;;;;;;;5019392;28;20058;-76
2024/04/06 13:48:13;;;;;;;13.32;5.82;;;;;;;;;;5018543;28;20044;-75
2024/04/06 13:51:17;;;;;;;10.40;5.80;;;;;;;;;;5018123;28;20492;-74
2024/04/06 13:54:21;;;;;;;12.75;5.25;;;;;;;;;;5017325;28;20042;-75
2024/04/06 13:57:26;;;;;;;17.15;5.00;;;;;;;;;;5006064;28;20148;-77
2024/04/06 14:00:30;;;;;;;12.25;4.80;;;;;;;;;;5005685;28;20049;-76
2024/04/06 14:03:35;;;;;;;19.23;5.25;;;;;;;;;;5017829;28;20049;-76
2024/04/06 14:06:40;;;;;;;9.07;4.07;;;;;;;;;;5016488;28;20044;-76
2024/04/06 14:09:46;;;;;;;12.98;5.00;;;;;;;;;;5017469;28;20375;-75
2024/04/06 14:12:50;;;;;;;9.93;3.90;;;;;;;;;;5015212;28;20048;-75
2024/04/06 14:15:56;;;;;;;8.73;4.10;;;22.00;93.10;;;;;;5015378;28;20038;-75
2024/04/06 14:19:01;;;;;;;14.57;4.68;;;;;;;;;;5004420;28;20041;-75
2024/04/06 14:22:06;;;;;;;9.02;4.00;;;21.90;93.10;;;;;;5016510;28;20053;-75
2024/04/06 14:25:11;;;;;;;12.43;3.90;;;;;;;;;;5005084;28;20037;-75
2024/04/06 14:28:15;;;;;;;13.85;3.70;;;;;;;;;;5015533;28;20049;-75
2024/04/06 14:31:19;;;;;;;8.50;2.90;;;;;;;;;;5015496;28;20060;-76
2024/04/06 14:34:23;;;;;;;6.85;3.08;;;;;;;;;;5015016;28;20038;-76
2024/04/06 14:37:28;;;;;;;17.73;3.65;;;;;;;;;;5015641;28;20494;-74
2024/04/06 14:40:32;;;;;;;10.05;3.47;;;;;;;;;;5003266;28;20049;-76
2024/04/06 14:43:37;;;;;;;8.13;2.88;;;;;;;;;;5015944;28;20060;-75
2024/04/06 14:46:41;;;;;;;21.42;3.65;;;;;;;;;;5004526;28;20038;-75
2024/04/06 14:49:46;;;;;;;10.60;2.72;;;;;;;;;;5016688;28;20041;-75
2024/04/06 14:52:50;;;;;;;10.57;2.63;;;;;;;;;;5004685;28;20045;-76
2024/04/06 14:55:55;;;;;;;12.40;2.70;;;;;;;;;;5016959;28;20052;-75
2024/04/06 14:59:00;;;;;;;5.47;2.72;;;;;;;;;;5003933;28;20045;-74
2024/04/06 15:02:04;;;;;;;8.57;2.92;;;;;;;;;;5015563;28;20486;-74
2024/04/06 15:05:08;;;;;;;6.35;2.17;;;;;;;;;;5017203;28;20038;-77
2024/04/06 15:08:16;;;;;;;14.45;4.05;;;21.90;92.00;;;;;;5017334;28;20037;-76
2024/04/06 15:11:20;;;;;;;9.88;3.30;;;;;;;;;;5019447;28;20068;-76
2024/04/06 15:14:27;;;;;;;12.70;3.05;;;22.30;91.90;;;;;;5018581;28;20034;-74
2024/04/06 15:17:31;;;;;;;6.20;2.20;;;;;;;;;;5006036;28;20049;-74
2024/04/06 15:20:37;;;;;;;11.50;3.22;;;21.80;91.80;;;;;;5015640;28;20049;-74
2024/04/06 15:23:43;;;;;;;7.80;2.38;;;;;;;;;;5015962;28;20040;-76
2024/04/06 15:26:47;;;;;;;8.10;2.25;;;;;;;;;;5015586;28;20042;-75
2024/04/06 15:29:54;;;;;;;12.70;3.00;;;;;;;;;;5016963;28;20046;-76
2024/04/06 15:33:00;;;;;;;5.90;2.33;;;;;;;;;;5017771;28;20402;-76
2024/04/06 15:36:05;;;;;;;10.18;3.03;;;;;;;;;;5017083;28;20034;-75
2024/04/06 15:39:28;;;;;;;8.52;2.42;;;21.70;91.70;;;;;;5018023;28;20045;-77
2024/04/06 15:42:33;;;;;;;7.47;2.17;;;21.80;91.60;;;;;;5015275;28;20382;-75
2024/04/06 15:45:40;;;;;;;12.15;3.10;;;;;;;;;;5018033;28;20061;-76
2024/04/06 15:48:45;;;;;;;9.82;2.40;;;;;;;;;;5017259;28;20061;-76
2024/04/06 15:51:49;;;;;;;7.63;2.17;;;;;;;;;;5016914;28;20030;-77
2024/04/06 15:54:55;;;;;;;6.03;1.90;;;21.70;92.10;;;;;;5015911;28;20042;-75
2024/04/06 15:58:00;;;;;;;4.40;1.88;;;;;;;;;;5003832;28;20578;-77
2024/04/06 16:01:04;;;;;;;6.07;2.17;;;;;;;;;;5017067;28;20045;-76
2024/04/06 16:04:09;;;;;;;13.05;3.22;;;22.70;92.40;;;;;;5015455;28;20038;-75
2024/04/06 16:07:13;;;;;;;14.50;2.55;;;;;;;;;;5016512;28;20053;-75
2024/04/06 16:10:17;;;;;;;7.25;2.85;;;;;;;;;;5015380;28;20045;-75
2024/04/06 16:13:22;;;;;;;15.95;3.33;;;;;;;;;;5012161;28;20037;-78
2024/04/06 16:16:27;;;;;;;7.68;2.78;;;21.40;92.40;;;;;;5009869;28;20048;-74
2024/04/06 16:19:34;;;;;;;9.85;2.47;;;;;;;;;;5010563;28;20394;-75
2024/04/06 16:22:38;;;;;;;12.75;2.97;;;21.40;92.60;;;;;;5009811;28;20494;-74
2024/04/06 16:25:43;;;;;;;17.50;2.72;;;;;;;;;;5010192;28;20390;-75
2024/04/06 16:28:47;;;;;;;9.20;2.60;;;;;;;;;;5010351;28;20049;-75
2024/04/06 16:31:51;;;;;;;11.35;2.70;;;;;;;;;;5010413;28;20030;-74
2024/04/06 16:34:56;;;;;;;8.90;2.63;;;;;;;;;;5010336;28;20053;-77
2024/04/06 16:38:01;;;;;;;11.80;2.90;;;;;;;;;;4998474;28;20038;-77
2024/04/06 16:41:05;;;;;;;7.93;2.78;;;;;;;;;;5011241;28;20056;-75
2024/04/06 16:44:09;;;;;;;18.33;4.80;;;;;;;;;;5013561;28;20391;-76
2024/04/06 16:47:14;;;;;;;13.05;3.63;;;;;;;;;;5013607;28;20049;-76
2024/04/06 16:50:18;;;;;;;10.88;3.70;;;;;;;;;;5013804;28;20045;-77
2024/04/06 16:53:23;;;;;;;10.55;3.35;;;;;;;;;;5013410;28;20049;-77
2024/04/06 16:56:27;;;;;;;17.23;4.05;;;;;;;;;;5013577;28;20521;-77
2024/04/06 16:59:31;;;;;;;11.23;3.00;;;;;;;;;;5001179;28;20041;-77
2024/04/06 17:02:35;;;;;;;20.95;3.60;;;;;;;;;;5001220;28;20052;-76
2024/04/06 17:05:39;;;;;;;10.57;2.65;;;;;;;;;;5013027;28;20036;-77
2024/04/06 17:08:44;;;;;;;21.95;4.43;;;;;;;;;;5013375;28;20045;-78
2024/04/06 17:11:49;;;;;;;8.60;3.10;;;;;;;;;;5001184;28;20049;-78
2024/04/06 17:14:53;;;;;;;25.73;4.38;;;;;;;;;;5001285;28;20045;-78
2024/04/06 17:17:57;;;;;;;13.68;3.72;;;;;;;;;;5013221;28;20044;-76
2024/04/06 17:21:02;;;;;;;10.60;3.20;;;;;;;;;;5012684;28;20057;-76
2024/04/06 17:24:06;;;;;;;6.78;2.60;;;;;;;;;;5013254;28;20037;-78
2024/04/06 17:27:11;;;;;;;14.32;3.72;;;;;;;;;;4989733;28;20037;-78